Aviation Digital Data Service (ADDS)

Output produced by METARs form (0410 UTC 05 May 2015)
found at http://aviationweather.gov/adds/metars/
 
KACY 042321Z 0500/0524 20008KT P6SM SCT050 
     FM051200 23010KT P6SM SCT050 
     FM052000 24008KT P6SM BKN050 
     TEMPO 0522/0524 -SHRA OVC035